createdAt,value
2022-12-31T00:00:41.319Z,100.00
2022-12-31T00:03:10.526Z,100.00
2022-12-31T00:05:40.331Z,100.00
2022-12-31T00:08:08.685Z,100.00
2022-12-31T00:10:41.615Z,100.00
2022-12-31T00:13:10.677Z,100.00
2022-12-31T00:15:39.393Z,100.00
2022-12-31T00:18:08.234Z,100.00
2022-12-31T00:20:42.493Z,100.00
2022-12-31T00:23:11.482Z,100.00
2022-12-31T00:25:39.936Z,100.00
2022-12-31T00:28:08.231Z,100.00
2022-12-31T00:30:36.529Z,100.00
2022-12-31T00:33:05.130Z,100.00
2022-12-31T00:35:34.951Z,100.00
2022-12-31T00:38:04.576Z,100.00
2022-12-31T00:40:32.881Z,100.00
2022-12-31T00:43:01.207Z,100.00
2022-12-31T00:45:29.558Z,100.00
2022-12-31T00:47:57.958Z,100.00
2022-12-31T00:50:26.476Z,100.00
2022-12-31T00:52:54.712Z,100.00
2022-12-31T00:55:24.860Z,100.00
2022-12-31T00:57:53.117Z,100.00
2022-12-31T01:00:21.495Z,100.00
2022-12-31T01:02:49.885Z,100.00
2022-12-31T01:05:18.348Z,100.00
2022-12-31T01:07:46.638Z,100.00
2022-12-31T01:10:35.309Z,100.00
2022-12-31T01:13:05.006Z,100.00
2022-12-31T01:15:34.779Z,100.00
2022-12-31T01:18:03.618Z,100.00
2022-12-31T01:20:37.086Z,100.00
2022-12-31T01:23:05.475Z,100.00
2022-12-31T01:25:36.786Z,100.00
2022-12-31T01:28:08.089Z,100.00
2022-12-31T01:30:39.838Z,100.00
2022-12-31T01:33:08.245Z,100.00
2022-12-31T01:35:37.508Z,100.00
2022-12-31T01:38:06.522Z,100.00
2022-12-31T01:40:38.099Z,100.00
2022-12-31T01:43:16.905Z,100.00
2022-12-31T01:45:46.233Z,100.00
2022-12-31T01:48:18.076Z,100.00
2022-12-31T01:50:48.516Z,100.00
2022-12-31T01:53:18.465Z,100.00
2022-12-31T01:55:50.514Z,100.00
2022-12-31T01:58:24.654Z,100.00
2022-12-31T02:00:53.766Z,100.00
2022-12-31T02:03:23.698Z,100.00
2022-12-31T02:05:55.860Z,100.00
2022-12-31T02:08:24.813Z,100.00
2022-12-31T02:10:54.564Z,100.00
2022-12-31T02:13:24.461Z,100.00
2022-12-31T02:15:58.644Z,100.00
2022-12-31T02:18:31.414Z,100.00
2022-12-31T02:21:20.078Z,100.00
2022-12-31T02:24:31.452Z,100.00
2022-12-31T02:27:03.164Z,100.00
2022-12-31T02:29:54.672Z,100.00
2022-12-31T02:32:26.103Z,100.00
2022-12-31T02:34:58.600Z,100.00
2022-12-31T02:37:28.543Z,100.00
2022-12-31T02:39:57.273Z,100.00
2022-12-31T02:42:25.612Z,100.00
2022-12-31T02:44:55.915Z,100.00
2022-12-31T02:47:32.835Z,100.00
2022-12-31T02:50:12.649Z,100.00
2022-12-31T02:52:47.649Z,99.87
2022-12-31T02:55:20.281Z,100.00
2022-12-31T02:57:52.080Z,100.00
2022-12-31T03:00:40.049Z,100.00
2022-12-31T03:03:09.503Z,100.00
2022-12-31T03:05:40.994Z,94.45
2022-12-31T03:08:09.556Z,100.00
2022-12-31T03:10:39.105Z,100.00
2022-12-31T03:13:06.520Z,97.50
2022-12-31T03:15:36.392Z,95.03
2022-12-31T03:18:06.894Z,96.99
2022-12-31T03:20:54.922Z,100.00
2022-12-31T03:23:26.944Z,98.16
2022-12-31T03:25:56.152Z,94.09
2022-12-31T03:28:26.794Z,100.00
2022-12-31T03:30:59.371Z,95.13
2022-12-31T03:33:31.892Z,92.06
2022-12-31T03:36:00.263Z,90.89
2022-12-31T03:38:29.343Z,92.94
2022-12-31T03:40:57.817Z,91.80
2022-12-31T03:43:26.485Z,96.52
2022-12-31T03:45:59.823Z,93.00
2022-12-31T03:48:28.404Z,92.02
2022-12-31T03:50:57.158Z,93.33
2022-12-31T03:53:25.476Z,98.82
2022-12-31T03:55:54.836Z,100.00
2022-12-31T03:58:23.794Z,97.08
2022-12-31T04:00:52.742Z,99.23
2022-12-31T04:03:22.666Z,100.00
2022-12-31T04:05:55.592Z,100.00
2022-12-31T04:08:24.210Z,97.18
2022-12-31T04:10:53.471Z,100.00
2022-12-31T04:13:21.742Z,93.59
2022-12-31T04:15:51.873Z,91.84
2022-12-31T04:18:20.468Z,92.83
2022-12-31T04:20:50.079Z,87.32
2022-12-31T04:23:19.103Z,86.58
2022-12-31T04:25:47.434Z,92.80
2022-12-31T04:28:16.035Z,88.32
2022-12-31T04:30:44.553Z,82.23
2022-12-31T04:33:13.375Z,83.92
2022-12-31T04:35:41.709Z,84.66
2022-12-31T04:38:11.374Z,85.20
2022-12-31T04:40:59.669Z,89.09
2022-12-31T04:43:28.069Z,83.67
2022-12-31T04:45:56.393Z,83.26
2022-12-31T04:48:24.717Z,79.45
2022-12-31T04:50:53.221Z,81.20
2022-12-31T04:53:24.606Z,82.51
2022-12-31T04:55:53.021Z,78.98
2022-12-31T04:58:21.655Z,78.48
2022-12-31T05:00:51.570Z,82.42
2022-12-31T05:03:20.111Z,78.00
2022-12-31T05:05:50.060Z,80.21
2022-12-31T05:08:19.166Z,77.43
2022-12-31T05:10:49.900Z,77.42
2022-12-31T05:13:18.311Z,80.66
2022-12-31T05:15:47.410Z,80.24
2022-12-31T05:18:16.078Z,78.85
2022-12-31T05:20:44.527Z,80.27
2022-12-31T05:23:13.377Z,78.93
2022-12-31T05:25:42.808Z,80.34
2022-12-31T05:28:13.086Z,81.00
2022-12-31T05:30:41.722Z,78.40
2022-12-31T05:33:10.176Z,82.74
2022-12-31T05:35:38.512Z,81.29
2022-12-31T05:38:06.923Z,80.75
2022-12-31T05:40:35.368Z,84.72
2022-12-31T05:43:03.691Z,79.95
2022-12-31T05:45:33.451Z,77.63
2022-12-31T05:48:01.871Z,79.03
2022-12-31T05:50:30.195Z,86.36
2022-12-31T05:52:58.567Z,85.42
2022-12-31T05:55:26.910Z,85.44
2022-12-31T05:57:55.242Z,90.17
2022-12-31T06:00:23.868Z,88.34
2022-12-31T06:02:53.681Z,85.67
2022-12-31T06:05:26.064Z,84.11
2022-12-31T06:07:54.812Z,83.24
2022-12-31T06:10:23.059Z,85.91
2022-12-31T06:12:51.269Z,81.17
2022-12-31T06:15:19.537Z,83.73
2022-12-31T06:17:47.895Z,84.97
2022-12-31T06:20:17.720Z,85.13
2022-12-31T06:22:45.966Z,84.93
2022-12-31T06:25:14.362Z,84.51
2022-12-31T06:27:42.608Z,81.80
2022-12-31T06:30:12.495Z,84.23
2022-12-31T06:32:40.890Z,81.63
2022-12-31T06:35:09.495Z,79.72
2022-12-31T06:37:39.159Z,76.34
2022-12-31T06:40:08.912Z,78.31
2022-12-31T06:42:37.203Z,78.26
2022-12-31T06:45:06.665Z,80.89
2022-12-31T06:47:35.094Z,77.92
2022-12-31T06:50:03.330Z,75.58
2022-12-31T06:52:31.611Z,76.98
2022-12-31T06:55:02.261Z,79.42
2022-12-31T06:57:31.142Z,83.67
2022-12-31T07:00:00.132Z,82.43
2022-12-31T07:02:39.499Z,78.48
2022-12-31T07:05:19.986Z,77.75
2022-12-31T07:07:53.413Z,78.18
2022-12-31T07:10:30.078Z,75.19
2022-12-31T07:13:11.479Z,75.65
2022-12-31T07:15:49.674Z,70.23
2022-12-31T07:18:25.557Z,73.30
2022-12-31T07:20:54.531Z,70.43
2022-12-31T07:23:23.468Z,69.75
2022-12-31T07:25:57.277Z,69.33
2022-12-31T07:28:36.840Z,71.07
2022-12-31T07:31:09.197Z,70.05
2022-12-31T07:33:54.165Z,69.87
2022-12-31T07:36:31.623Z,71.71
2022-12-31T07:39:04.496Z,71.27
2022-12-31T07:41:43.865Z,74.22
2022-12-31T07:44:19.369Z,73.97
2022-12-31T07:46:55.396Z,69.96
2022-12-31T07:49:24.656Z,68.78
2022-12-31T07:51:53.538Z,68.41
2022-12-31T07:54:22.211Z,71.72
2022-12-31T07:56:52.100Z,70.94
2022-12-31T07:59:33.599Z,73.19
2022-12-31T08:02:04.464Z,71.32
2022-12-31T08:04:37.728Z,70.96
2022-12-31T08:07:15.123Z,78.31
2022-12-31T08:09:48.030Z,78.35
2022-12-31T08:12:18.312Z,78.78
2022-12-31T08:14:48.473Z,80.88
2022-12-31T08:17:18.658Z,77.55
2022-12-31T08:19:47.610Z,79.91
2022-12-31T08:22:40.507Z,77.30
2022-12-31T08:25:15.822Z,81.53
2022-12-31T08:27:52.066Z,81.46
2022-12-31T08:30:21.815Z,78.57
2022-12-31T08:32:53.092Z,75.42
2022-12-31T08:35:30.811Z,75.92
2022-12-31T08:38:04.178Z,71.95
2022-12-31T08:40:44.899Z,73.82
2022-12-31T08:43:23.375Z,70.11
2022-12-31T08:45:52.975Z,60.58
2022-12-31T08:48:27.587Z,55.65
2022-12-31T08:50:56.632Z,71.59
2022-12-31T08:53:25.724Z,79.94
2022-12-31T08:55:57.964Z,82.18
2022-12-31T08:58:37.685Z,77.10
2022-12-31T09:01:07.146Z,72.31
2022-12-31T09:03:55.803Z,70.95
2022-12-31T09:08:59.895Z,68.26
2022-12-31T09:11:32.259Z,66.56
2022-12-31T09:14:33.048Z,66.92
2022-12-31T09:17:04.397Z,65.61
2022-12-31T09:19:32.727Z,66.23
2022-12-31T09:22:01.412Z,65.41
2022-12-31T09:24:30.059Z,67.22
2022-12-31T09:27:06.445Z,70.64
2022-12-31T09:29:49.690Z,71.29
2022-12-31T09:32:24.604Z,72.84
2022-12-31T09:34:56.367Z,72.50
2022-12-31T09:37:37.435Z,71.51
2022-12-31T09:40:32.222Z,70.25
2022-12-31T09:43:59.052Z,70.53
2022-12-31T09:47:01.656Z,68.34
2022-12-31T09:50:07.906Z,68.51
2022-12-31T09:52:48.659Z,74.83
2022-12-31T09:55:29.267Z,79.71
2022-12-31T09:57:59.606Z,74.46
2022-12-31T10:00:34.444Z,73.12
2022-12-31T10:03:24.377Z,75.96
2022-12-31T10:06:05.473Z,75.23
2022-12-31T10:08:43.450Z,75.21
2022-12-31T10:11:17.642Z,74.69
2022-12-31T10:13:58.568Z,70.37
2022-12-31T10:16:39.528Z,66.21
2022-12-31T10:19:41.241Z,61.94
2022-12-31T10:22:28.072Z,64.26
2022-12-31T10:25:15.820Z,64.29
2022-12-31T10:27:50.994Z,63.92
2022-12-31T10:30:21.099Z,67.14
2022-12-31T10:33:00.487Z,64.96
2022-12-31T10:35:40.384Z,65.71
2022-12-31T10:38:20.430Z,62.98
2022-12-31T10:41:18.433Z,62.25
2022-12-31T10:44:05.235Z,61.27
2022-12-31T10:46:56.690Z,60.97
2022-12-31T10:49:55.178Z,60.35
2022-12-31T10:52:51.822Z,60.08
2022-12-31T10:56:05.964Z,60.26
2022-12-31T10:59:09.963Z,61.64
2022-12-31T11:01:47.392Z,61.13
2022-12-31T11:04:41.579Z,63.18
2022-12-31T11:07:46.921Z,69.78
2022-12-31T11:10:36.177Z,68.07
2022-12-31T11:13:26.374Z,64.16
2022-12-31T11:16:16.829Z,63.85
2022-12-31T11:18:48.319Z,73.62
2022-12-31T11:21:28.050Z,100.00
2022-12-31T11:24:01.559Z,95.08
2022-12-31T11:26:41.918Z,90.25
2022-12-31T11:29:19.962Z,89.19
2022-12-31T11:32:07.917Z,91.05
2022-12-31T11:35:12.357Z,82.75
2022-12-31T11:37:45.944Z,85.19
2022-12-31T11:40:26.951Z,80.04
2022-12-31T11:42:59.037Z,76.64
2022-12-31T11:45:40.221Z,92.69
2022-12-31T11:48:30.024Z,92.34
2022-12-31T11:51:11.961Z,86.20
2022-12-31T11:54:01.663Z,84.30
2022-12-31T11:56:33.819Z,84.45
2022-12-31T11:59:12.102Z,80.72
2022-12-31T12:01:52.429Z,80.18
2022-12-31T12:04:22.290Z,81.51
2022-12-31T12:06:50.793Z,80.00
2022-12-31T12:09:26.532Z,77.30
2022-12-31T12:11:59.488Z,79.45
2022-12-31T12:14:32.845Z,87.50
2022-12-31T12:17:05.046Z,81.35
2022-12-31T12:19:36.383Z,75.63
2022-12-31T12:22:11.573Z,73.11
2022-12-31T12:24:39.935Z,71.40
2022-12-31T12:27:21.983Z,67.09
2022-12-31T12:29:50.382Z,67.64
2022-12-31T12:32:20.383Z,68.84
2022-12-31T12:34:50.375Z,69.70
2022-12-31T12:37:28.112Z,69.79
2022-12-31T12:39:58.161Z,66.23
2022-12-31T12:42:26.540Z,62.97
2022-12-31T12:45:07.443Z,59.89
2022-12-31T12:47:35.938Z,61.44
2022-12-31T12:50:06.228Z,61.09
2022-12-31T12:52:48.894Z,57.02
2022-12-31T12:55:21.468Z,57.84
2022-12-31T12:57:55.964Z,58.66
2022-12-31T13:00:30.038Z,59.55
2022-12-31T13:03:31.876Z,59.46
2022-12-31T13:06:15.413Z,59.68
2022-12-31T13:08:56.323Z,56.66
2022-12-31T13:11:37.120Z,55.46
2022-12-31T13:14:14.679Z,56.88
2022-12-31T13:16:48.593Z,59.78
2022-12-31T13:19:21.319Z,61.38
2022-12-31T13:21:56.608Z,67.28
2022-12-31T13:24:36.775Z,64.08
2022-12-31T13:27:11.158Z,65.50
2022-12-31T13:29:40.968Z,70.97
2022-12-31T13:32:10.966Z,67.94
2022-12-31T13:34:41.675Z,69.03
2022-12-31T13:37:21.322Z,77.07
2022-12-31T13:39:58.241Z,78.81
2022-12-31T13:42:31.996Z,85.76
2022-12-31T13:45:02.557Z,89.41
2022-12-31T13:47:34.846Z,89.26
2022-12-31T13:50:14.447Z,86.13
2022-12-31T13:52:49.543Z,79.84
2022-12-31T13:55:22.154Z,75.23
2022-12-31T13:57:52.513Z,73.69
2022-12-31T14:00:24.082Z,74.89
2022-12-31T14:02:59.763Z,78.86
2022-12-31T14:05:32.165Z,78.56
2022-12-31T14:08:03.029Z,76.80
2022-12-31T14:10:42.313Z,77.15
2022-12-31T14:13:22.519Z,81.81
2022-12-31T14:16:01.405Z,85.84
2022-12-31T14:18:35.920Z,100.00
2022-12-31T14:21:08.811Z,100.00
2022-12-31T14:23:44.254Z,93.90
2022-12-31T14:26:21.142Z,100.00
2022-12-31T14:28:57.368Z,96.32
2022-12-31T14:31:33.170Z,94.40
2022-12-31T14:34:06.423Z,94.69
2022-12-31T14:36:43.796Z,95.69
2022-12-31T14:39:30.785Z,94.63
2022-12-31T14:42:17.072Z,97.47
2022-12-31T14:44:55.875Z,98.82
2022-12-31T14:47:32.134Z,99.78
2022-12-31T14:50:06.521Z,100.00
2022-12-31T14:52:36.959Z,100.00
2022-12-31T14:55:27.764Z,100.00
2022-12-31T15:00:53.845Z,100.00
2022-12-31T15:03:27.727Z,100.00
2022-12-31T15:06:00.322Z,100.00
2022-12-31T15:08:38.995Z,100.00
2022-12-31T15:11:22.756Z,100.00
2022-12-31T15:14:04.778Z,100.00
2022-12-31T15:16:45.047Z,100.00
2022-12-31T15:19:43.443Z,100.00
2022-12-31T15:22:22.424Z,100.00
2022-12-31T15:24:50.880Z,100.00
2022-12-31T15:27:32.550Z,100.00
2022-12-31T15:30:01.408Z,100.00
2022-12-31T15:32:33.568Z,100.00
2022-12-31T15:35:02.973Z,100.00
2022-12-31T15:37:33.531Z,100.00
2022-12-31T15:40:18.715Z,100.00
2022-12-31T15:42:50.628Z,100.00
2022-12-31T15:45:22.567Z,100.00
2022-12-31T15:47:55.775Z,100.00
2022-12-31T15:50:25.865Z,100.00
2022-12-31T15:52:56.485Z,100.00
2022-12-31T15:55:31.291Z,100.00
2022-12-31T15:58:06.595Z,100.00
2022-12-31T16:00:48.982Z,100.00
2022-12-31T16:03:23.744Z,100.00
2022-12-31T16:05:54.524Z,100.00
2022-12-31T16:08:26.929Z,100.00
2022-12-31T16:10:57.062Z,100.00
2022-12-31T16:13:29.424Z,100.00
2022-12-31T16:16:04.432Z,100.00
2022-12-31T16:18:40.275Z,100.00
2022-12-31T16:21:26.071Z,100.00
2022-12-31T16:23:56.763Z,100.00
2022-12-31T16:26:29.915Z,100.00
2022-12-31T16:29:01.426Z,100.00
2022-12-31T16:31:31.264Z,100.00
2022-12-31T16:34:08.990Z,100.00
2022-12-31T16:36:38.540Z,100.00
2022-12-31T16:39:28.245Z,100.00
2022-12-31T16:42:11.676Z,100.00
2022-12-31T16:44:42.721Z,100.00
2022-12-31T16:47:18.693Z,100.00
2022-12-31T16:49:50.144Z,100.00
2022-12-31T16:52:39.401Z,100.00
2022-12-31T16:55:10.275Z,100.00
2022-12-31T16:57:39.550Z,100.00
2022-12-31T17:00:17.482Z,100.00
2022-12-31T17:02:50.677Z,100.00
2022-12-31T17:05:21.302Z,100.00
2022-12-31T17:07:50.482Z,100.00
2022-12-31T17:10:24.509Z,100.00
2022-12-31T17:15:47.751Z,100.00
2022-12-31T17:18:20.487Z,100.00
2022-12-31T17:20:50.769Z,100.00
2022-12-31T17:23:25.912Z,100.00
2022-12-31T17:26:03.478Z,100.00
2022-12-31T17:28:43.274Z,100.00
2022-12-31T17:31:34.775Z,100.00
2022-12-31T17:34:19.355Z,100.00
2022-12-31T17:36:58.472Z,100.00
2022-12-31T17:39:29.432Z,100.00
2022-12-31T17:41:58.344Z,100.00
2022-12-31T17:44:28.536Z,100.00
2022-12-31T17:46:58.885Z,100.00
2022-12-31T17:49:29.704Z,100.00
2022-12-31T17:51:58.534Z,100.00
2022-12-31T17:54:26.863Z,100.00
2022-12-31T17:56:55.260Z,100.00
2022-12-31T17:59:29.587Z,100.00
2022-12-31T18:02:02.307Z,100.00
2022-12-31T18:04:30.589Z,100.00
2022-12-31T18:06:58.877Z,100.00
2022-12-31T18:09:27.133Z,100.00
2022-12-31T18:11:59.693Z,100.00
2022-12-31T18:14:29.881Z,100.00
2022-12-31T18:16:58.255Z,100.00
2022-12-31T18:20:02.821Z,100.00
2022-12-31T18:22:16.850Z,100.00
2022-12-31T18:24:45.501Z,100.00
2022-12-31T18:27:18.136Z,100.00
2022-12-31T18:29:46.696Z,100.00
2022-12-31T18:32:22.779Z,100.00
2022-12-31T18:34:53.011Z,100.00
2022-12-31T18:37:22.518Z,100.00
2022-12-31T18:39:51.144Z,100.00
2022-12-31T18:42:20.143Z,100.00
2022-12-31T18:44:48.416Z,100.00
2022-12-31T18:47:19.005Z,100.00
2022-12-31T18:49:48.543Z,100.00
2022-12-31T18:52:19.878Z,100.00
2022-12-31T18:54:48.420Z,100.00
2022-12-31T18:57:17.228Z,100.00
2022-12-31T18:59:45.524Z,100.00
2022-12-31T19:02:16.564Z,100.00
2022-12-31T19:04:44.956Z,100.00
2022-12-31T19:07:13.341Z,100.00
2022-12-31T19:09:45.587Z,100.00
2022-12-31T19:12:15.646Z,100.00
2022-12-31T19:14:45.430Z,100.00
2022-12-31T19:17:13.664Z,100.00
2022-12-31T19:19:42.035Z,100.00
2022-12-31T19:22:14.808Z,100.00
2022-12-31T19:24:44.494Z,100.00
2022-12-31T19:27:12.854Z,100.00
2022-12-31T19:29:41.223Z,100.00
2022-12-31T19:32:09.532Z,100.00
2022-12-31T19:34:37.905Z,100.00
2022-12-31T19:37:06.109Z,100.00
2022-12-31T19:39:34.340Z,100.00
2022-12-31T19:42:04.056Z,100.00
2022-12-31T19:44:32.360Z,100.00
2022-12-31T19:47:00.624Z,100.00
2022-12-31T19:49:28.862Z,100.00
2022-12-31T19:51:57.277Z,100.00
2022-12-31T19:54:25.690Z,100.00
2022-12-31T19:56:54.037Z,100.00
2022-12-31T19:59:23.600Z,100.00
2022-12-31T20:01:51.966Z,100.00
2022-12-31T20:04:21.607Z,100.00
2022-12-31T20:06:49.871Z,100.00
2022-12-31T20:09:18.108Z,100.00
2022-12-31T20:11:46.537Z,100.00
2022-12-31T20:14:14.874Z,100.00
2022-12-31T20:16:44.542Z,100.00
2022-12-31T20:19:12.905Z,100.00
2022-12-31T20:21:42.031Z,100.00
2022-12-31T20:24:10.281Z,100.00
2022-12-31T20:26:38.561Z,100.00
2022-12-31T20:29:06.848Z,100.00
2022-12-31T20:31:35.120Z,100.00
2022-12-31T20:34:04.739Z,100.00
2022-12-31T20:36:33.014Z,100.00
2022-12-31T20:39:01.319Z,100.00
2022-12-31T20:41:32.101Z,100.00
2022-12-31T20:44:00.905Z,100.00
2022-12-31T20:46:31.011Z,100.00
2022-12-31T20:49:00.800Z,100.00
2022-12-31T20:51:32.167Z,100.00
2022-12-31T20:54:02.683Z,100.00
2022-12-31T20:56:32.870Z,100.00
2022-12-31T20:59:01.405Z,100.00
2022-12-31T21:01:48.155Z,100.00
2022-12-31T21:04:18.507Z,100.00
2022-12-31T21:06:48.366Z,100.00
2022-12-31T21:09:16.654Z,100.00
2022-12-31T21:12:02.656Z,100.00
2022-12-31T21:14:30.954Z,100.00
2022-12-31T21:16:59.219Z,100.00
2022-12-31T21:19:27.555Z,100.00
2022-12-31T21:21:57.184Z,100.00
2022-12-31T21:24:25.456Z,100.00
2022-12-31T21:26:56.318Z,100.00
2022-12-31T21:29:24.619Z,100.00
2022-12-31T21:31:52.955Z,100.00
2022-12-31T21:34:21.283Z,100.00
2022-12-31T21:36:49.618Z,100.00
2022-12-31T21:39:19.182Z,100.00
2022-12-31T21:41:53.552Z,100.00
2022-12-31T21:44:23.781Z,100.00
2022-12-31T21:47:33.095Z,100.00
2022-12-31T21:49:44.811Z,100.00
2022-12-31T21:52:30.537Z,100.00
2022-12-31T21:55:19.363Z,100.00
2022-12-31T22:00:55.697Z,100.00
2022-12-31T22:03:28.201Z,100.00
2022-12-31T22:05:59.585Z,100.00
2022-12-31T22:08:28.973Z,100.00
2022-12-31T22:10:58.681Z,100.00
2022-12-31T22:13:27.080Z,100.00
2022-12-31T22:16:03.849Z,100.00
2022-12-31T22:18:35.665Z,100.00
2022-12-31T22:21:07.676Z,100.00
2022-12-31T22:23:38.421Z,100.00
2022-12-31T22:26:09.562Z,100.00
2022-12-31T22:28:40.407Z,100.00
2022-12-31T22:31:09.938Z,100.00
2022-12-31T22:33:38.211Z,100.00
2022-12-31T22:36:08.460Z,100.00
2022-12-31T22:38:36.765Z,100.00
2022-12-31T22:41:08.700Z,100.00
2022-12-31T22:43:38.864Z,100.00
2022-12-31T22:46:09.067Z,100.00
2022-12-31T22:48:37.789Z,100.00
2022-12-31T22:51:06.520Z,100.00
2022-12-31T22:53:34.871Z,100.00
2022-12-31T22:56:03.230Z,100.00
2022-12-31T22:58:32.866Z,100.00
2022-12-31T23:01:01.247Z,100.00
2022-12-31T23:03:29.586Z,100.00
2022-12-31T23:05:57.847Z,100.00
2022-12-31T23:08:26.084Z,100.00
2022-12-31T23:11:00.023Z,100.00
2022-12-31T23:13:50.597Z,100.00
2022-12-31T23:16:38.472Z,100.00
2022-12-31T23:19:24.345Z,100.00
2022-12-31T23:22:10.427Z,100.00
2022-12-31T23:24:39.132Z,100.00
2022-12-31T23:27:08.341Z,100.00
2022-12-31T23:29:45.557Z,100.00
2022-12-31T23:32:16.540Z,100.00
2022-12-31T23:34:45.726Z,100.00
2022-12-31T23:37:14.305Z,100.00
2022-12-31T23:39:43.101Z,100.00
2022-12-31T23:42:11.390Z,100.00
2022-12-31T23:44:39.649Z,100.00
2022-12-31T23:47:07.989Z,100.00
2022-12-31T23:49:37.709Z,100.00
2022-12-31T23:52:05.988Z,100.00
2022-12-31T23:54:35.155Z,100.00
2022-12-31T23:57:03.844Z,100.00
2022-12-31T23:59:32.186Z,100.00
